Time;durP1;ratioP1;P1;durP2;ratioP2;P2;SDS_P1;SDS_P2;PMS_P1;PMS_P2;Temp;Humidity;BMP_temperature;BMP_pressure;BME280_temperature;BME280_humidity;BME280_pressure;Samples;Min_cycle;Max_cycle;Signal;HPM_P1;HPM_P2
2022/04/17 00:01:43;;;;;;;6.90;3.08;;;;;;;;;;4939281;29;20074;-89
2022/04/17 00:04:10;;;;;;;7.53;2.95;;;;;;;;;;4939249;29;20435;-90
2022/04/17 00:06:35;;;;;;;8.25;3.70;;;;;;;;;;4939077;29;20426;-90
2022/04/17 00:09:01;;;;;;;5.50;2.90;;;;;;;;;;4940265;29;20065;-90
2022/04/17 00:11:26;;;;;;;7.50;2.83;;;;;;;;;;4939412;29;20023;-90
2022/04/17 00:13:51;;;;;;;7.03;2.67;;;;;;;;;;4939831;29;20082;-90
2022/04/17 00:16:16;;;;;;;6.25;2.80;;;;;;;;;;4939426;29;20015;-90
2022/04/17 00:18:41;;;;;;;6.03;2.90;;;;;;;;;;4956455;28;20110;-89
2022/04/17 00:21:10;;;;;;;6.80;3.10;;;;;;;;;;4940886;29;20030;-90
2022/04/17 00:23:35;;;;;;;6.22;2.20;;;;;;;;;;4939086;29;20023;-90
2022/04/17 00:26:01;;;;;;;5.80;2.90;;;;;;;;;;4956409;28;20028;-89
2022/04/17 00:28:26;;;;;;;8.35;2.80;;;;;;;;;;4939313;29;20034;-90
2022/04/17 00:30:51;;;;;;;6.50;2.92;;;;;;;;;;4959521;28;20596;-90
2022/04/17 00:33:16;;;;;;;7.20;3.22;;;;;;;;;;4939155;29;20038;-90
2022/04/17 00:35:44;;;;;;;9.63;3.55;;;;;;;;;;4938995;28;20442;-90
2022/04/17 00:38:09;;;;;;;7.30;3.08;;;;;;;;;;4938757;29;20110;-90
2022/04/17 00:40:34;;;;;;;6.68;3.22;;;;;;;;;;4939183;29;20509;-90
2022/04/17 00:42:59;;;;;;;4.63;2.65;;;;;;;;;;4941189;29;20030;-90
2022/04/17 00:45:25;;;;;;;5.55;3.05;;;;;;;;;;4938593;28;20027;-89
2022/04/17 00:47:50;;;;;;;7.75;3.05;;;;;;;;;;4955722;29;20085;-90
2022/04/17 00:50:15;;;;;;;7.60;2.97;;;;;;;;;;4938549;29;20487;-90
2022/04/17 00:52:42;;;;;;;7.30;3.45;;;;;;;;;;4938824;29;20015;-89
2022/04/17 00:55:08;;;;;;;7.68;3.40;;;;;;;;;;4941928;29;20423;-90
2022/04/17 00:57:34;;;;;;;5.35;2.95;;;;;;;;;;4942556;29;20491;-90
2022/04/17 01:00:00;;;;;;;7.90;3.03;;;;;;;;;;4942514;29;20020;-90
2022/04/17 01:02:25;;;;;;;7.82;3.08;;;;;;;;;;4942538;29;20063;-91
2022/04/17 01:04:51;;;;;;;8.40;3.40;;;;;;;;;;4942517;29;20020;-90
2022/04/17 01:07:16;;;;;;;6.47;2.72;;;;;;;;;;4943365;29;20019;-90
2022/04/17 01:09:43;;;;;;;8.02;3.10;;;;;;;;;;4942357;29;20066;-90
2022/04/17 01:12:10;;;;;;;7.80;3.20;;;;;;;;;;4959487;28;20515;-90
2022/04/17 01:14:36;;;;;;;12.15;3.42;;;;;;;;;;4941769;29;20497;-90
2022/04/17 01:17:02;;;;;;;8.90;3.50;;;;;;;;;;4943713;29;20023;-90
2022/04/17 01:19:32;;;;;;;9.38;2.97;;;;;;;;;;4942056;28;20031;-90
2022/04/17 01:21:57;;;;;;;9.60;3.75;;;;;;;;;;4942404;29;20031;-91
2022/04/17 01:27:06;;;;;;;7.18;3.60;;;;;;;;;;4959984;28;20050;-90
2022/04/17 01:29:36;;;;;;;6.60;3.85;;;;;;;;;;4961036;28;20023;-89
2022/04/17 01:32:02;;;;;;;5.45;3.00;;;;;;;;;;4959483;28;20090;-90
2022/04/17 01:34:28;;;;;;;8.32;3.58;;;;;;;;;;4941960;29;20027;-89
2022/04/17 01:36:53;;;;;;;7.10;2.95;;;;;;;;;;4943456;29;20019;-89
2022/04/17 01:39:19;;;;;;;7.43;3.88;;;;;;;;;;4950285;29;20027;-90
2022/04/17 01:41:45;;;;;;;8.35;4.35;;;;;;;;;;4947875;29;20107;-90
2022/04/17 01:44:10;;;;;;;9.05;3.50;;;;;;;;;;4942729;29;20023;-90
2022/04/17 01:46:35;;;;;;;8.23;3.75;;;;;;;;;;4947870;29;20026;-90
2022/04/17 01:49:01;;;;;;;8.60;3.47;;;;;;;;;;4948802;29;20386;-90
2022/04/17 01:51:26;;;;;;;6.47;3.22;;;;;;;;;;4944652;29;20027;-90
2022/04/17 01:53:52;;;;;;;7.53;3.72;;;;;;;;;;4942002;29;20042;-90
2022/04/17 01:56:17;;;;;;;9.65;4.15;;;;;;;;;;4943117;29;20483;-90
2022/04/17 01:58:42;;;;;;;8.75;3.50;;;;;;;;;;4957152;29;20027;-90
2022/04/17 02:01:08;;;;;;;7.35;3.00;;;;;;;;;;4957854;28;20046;-90
2022/04/17 02:03:33;;;;;;;8.93;3.10;;;;;;;;;;4956840;29;20096;-88
2022/04/17 02:06:00;;;;;;;6.47;2.88;;;;;;;;;;4959532;29;20027;-89
2022/04/17 02:08:27;;;;;;;10.70;3.20;;;;;;;;;;4960764;29;20034;-90
2022/04/17 02:10:53;;;;;;;6.53;3.00;;;;;;;;;;4958884;29;20038;-91
2022/04/17 02:13:18;;;;;;;7.30;2.95;;;;;;;;;;4958707;29;20027;-90
2022/04/17 02:15:43;;;;;;;5.18;2.80;;;;;;;;;;4959509;28;20130;-89
2022/04/17 02:18:08;;;;;;;7.53;3.00;;;;;;;;;;4959393;29;20023;-89
2022/04/17 02:20:33;;;;;;;5.88;3.20;;;;;;;;;;4956663;29;20538;-89
2022/04/17 02:22:59;;;;;;;5.60;2.58;;;;;;;;;;4959435;29;20023;-89
2022/04/17 02:25:24;;;;;;;5.82;2.90;;;;;;;;;;4955904;28;20018;-90
2022/04/17 02:27:53;;;;;;;8.00;3.38;;;;;;;;;;4991533;23;20046;-81
2022/04/17 02:30:19;;;;;;;5.93;2.97;;;;;;;;;;4964649;28;20027;-81
2022/04/17 02:32:45;;;;;;;8.90;3.53;;;;;;;;;;4964862;28;20119;-82
2022/04/17 02:35:11;;;;;;;5.68;2.50;;;;;;;;;;4966803;28;20027;-82
2022/04/17 02:37:44;;;;;;;6.60;2.63;;;;;;;;;;4966705;28;20095;-82
2022/04/17 02:40:12;;;;;;;6.40;2.97;;;;;;;;;;4966555;28;20497;-82
2022/04/17 02:42:37;;;;;;;8.03;3.30;;;;;;;;;;4965896;28;20023;-82
2022/04/17 02:45:03;;;;;;;7.43;2.63;;;;;;;;;;4983684;28;20370;-81
2022/04/17 02:47:44;;;;;;;7.38;3.35;;;;;;;;;;4966014;28;20018;-81
2022/04/17 02:50:10;;;;;;;6.53;2.42;;;;;;;;;;4967437;28;20030;-82
2022/04/17 02:52:35;;;;;;;5.95;2.67;;;;;;;;;;4965682;28;20044;-82
2022/04/17 02:55:01;;;;;;;6.15;2.78;;;;;;;;;;4966831;28;20490;-81
2022/04/17 02:57:28;;;;;;;5.30;2.38;;;;;;;;;;4983324;28;22047;-81
2022/04/17 02:59:56;;;;;;;4.68;2.38;;;;;;;;;;4966292;28;20019;-82
2022/04/17 03:07:50;;;;;;;5.88;2.50;;;;;;;;;;4986642;28;20026;-82
2022/04/17 03:10:20;;;;;;;5.78;2.50;;;;;;;;;;4967854;28;20022;-81
2022/04/17 03:12:46;;;;;;;5.53;2.35;;;;;;;;;;4969192;28;20070;-81
2022/04/17 03:15:15;;;;;;;5.97;2.67;;;;;;;;;;4969571;28;20027;-81
2022/04/17 03:17:47;;;;;;;5.70;2.85;;;;;;;;;;4971461;28;20033;-82
2022/04/17 03:20:12;;;;;;;4.82;2.20;;;;;;;;;;4972395;28;20037;-83
2022/04/17 03:22:42;;;;;;;6.38;2.20;;;;;;;;;;4971950;28;20510;-83
2022/04/17 03:25:08;;;;;;;5.40;2.30;;;;;;;;;;4972158;28;20026;-82
2022/04/17 03:27:46;;;;;;;5.68;2.83;;;;;;;;;;4990448;28;20031;-82
2022/04/17 03:30:13;;;;;;;6.50;2.95;;;;;;;;;;4972403;28;20022;-82
2022/04/17 03:32:38;;;;;;;6.22;2.67;;;;;;;;;;4970763;28;20094;-82
2022/04/17 03:35:04;;;;;;;4.72;2.38;;;;;;;;;;4972297;28;20022;-83
2022/04/17 03:37:29;;;;;;;4.95;2.22;;;;;;;;;;4971947;28;20015;-81
2022/04/17 03:39:55;;;;;;;6.45;2.58;;;;;;;;;;4972024;28;20083;-82
2022/04/17 03:42:26;;;;;;;5.75;2.63;;;;;;;;;;4972759;28;20025;-81
2022/04/17 03:44:54;;;;;;;5.55;2.28;;;;;;;;;;4989413;28;20045;-81
2022/04/17 03:47:23;;;;;;;4.53;2.00;;;;;;;;;;4971718;28;20018;-81
2022/04/17 03:49:48;;;;;;;3.45;1.95;;;;;;;;;;4990125;28;20026;-81
2022/04/17 03:52:13;;;;;;;5.55;2.30;;;;;;;;;;4972708;28;20019;-83
2022/04/17 03:54:39;;;;;;;5.00;2.30;;;;;;;;;;4990046;28;20015;-82
2022/04/17 03:57:07;;;;;;;5.50;2.40;;;;;;;;;;4971303;28;20027;-81
2022/04/17 03:59:34;;;;;;;5.35;2.33;;;;;;;;;;4971575;28;20031;-81
2022/04/17 04:01:59;;;;;;;5.72;2.33;;;;;;;;;;4989453;28;20019;-81
2022/04/17 04:04:25;;;;;;;7.78;3.67;;;;;;;;;;4972849;28;20050;-81
2022/04/17 04:06:54;;;;;;;3.78;2.13;;;;;;;;;;4973013;28;20019;-81
2022/04/17 04:09:20;;;;;;;5.25;2.58;;;;;;;;;;4972567;28;20027;-81
2022/04/17 04:11:47;;;;;;;6.00;2.08;;;;;;;;;;4970501;28;20022;-81
2022/04/17 04:14:14;;;;;;;7.20;2.22;;;;;;;;;;4968680;28;20050;-81
2022/04/17 04:16:40;;;;;;;6.30;2.75;;;;;;;;;;4967718;28;20029;-82
2022/04/17 04:19:06;;;;;;;6.03;2.45;;;;;;;;;;4965175;28;20019;-82
2022/04/17 04:21:32;;;;;;;8.23;2.15;;;;;;;;;;4966181;28;20015;-81
2022/04/17 04:24:00;;;;;;;5.50;2.83;;;;;;;;;;4964809;28;20422;-81
2022/04/17 04:26:26;;;;;;;7.22;2.50;;;;;;;;;;4965196;28;20422;-82
2022/04/17 04:28:54;;;;;;;5.05;2.45;;;;;;;;;;4967245;28;20102;-81
2022/04/17 04:31:23;;;;;;;5.55;2.10;;;;;;;;;;4969129;28;20462;-80
2022/04/17 04:33:51;;;;;;;5.43;2.30;;;;;;;;;;4968498;28;20109;-80
2022/04/17 04:36:17;;;;;;;5.55;2.42;;;;;;;;;;4969836;28;20038;-82
2022/04/17 04:38:44;;;;;;;6.75;2.40;;;;;;;;;;4969427;28;20210;-81
2022/04/17 04:41:12;;;;;;;5.72;2.15;;;;;;;;;;4971023;28;20022;-82
2022/04/17 04:43:38;;;;;;;6.78;2.47;;;;;;;;;;4970927;28;20019;-82
2022/04/17 04:46:06;;;;;;;4.03;2.10;;;;;;;;;;4970503;28;20119;-82
2022/04/17 04:51:48;;;;;;;5.90;2.20;;;;;;;;;;4927368;29;20028;-82
2022/04/17 04:54:17;;;;;;;8.57;2.70;;;;;;;;;;4964009;28;20081;-82
2022/04/17 04:56:51;;;;;;;5.80;3.13;;;;;;;;;;4970328;28;20023;-80
2022/04/17 04:59:16;;;;;;;6.63;3.53;;;;;;;;;;4973222;28;20031;-82
2022/04/17 05:01:45;;;;;;;5.90;2.50;;;;;;;;;;4972903;28;20026;-81
2022/04/17 05:04:11;;;;;;;6.28;2.95;;;;;;;;;;4973587;28;20015;-83
2022/04/17 05:06:37;;;;;;;11.63;3.20;;;;;;;;;;4973995;28;20070;-81
2022/04/17 05:09:11;;;;;;;8.43;2.58;;;;;;;;;;4973933;28;20061;-82
2022/04/17 05:11:38;;;;;;;6.70;2.85;;;;;;;;;;4974131;28;20118;-82
2022/04/17 05:14:09;;;;;;;7.43;3.53;;;;;;;;;;4976861;28;20050;-83
2022/04/17 05:16:38;;;;;;;8.75;2.83;;;;;;;;;;4978371;28;20027;-81
2022/04/17 05:19:27;;;;;;;7.10;3.05;;;;;;;;;;4978464;28;20090;-82
2022/04/17 05:21:57;;;;;;;6.07;2.17;;;;;;;;;;4977445;28;20029;-82
2022/04/17 05:24:25;;;;;;;6.03;2.58;;;;;;;;;;4992263;28;20023;-82
2022/04/17 05:26:54;;;;;;;6.05;2.53;;;;;;;;;;4993938;28;20026;-81
2022/04/17 05:29:23;;;;;;;5.82;2.20;;;;;;;;;;4975667;28;20031;-82
2022/04/17 05:31:48;;;;;;;5.60;2.70;;;;;;;;;;4975155;28;20026;-82
2022/04/17 05:34:17;;;;;;;5.80;2.30;;;;;;;;;;4977346;28;20026;-81
2022/04/17 05:36:45;;;;;;;9.30;2.70;;;;;;;;;;4976671;28;20061;-82
2022/04/17 05:39:11;;;;;;;5.30;2.30;;;;;;;;;;4977369;28;20066;-82
2022/04/17 05:41:37;;;;;;;4.88;2.58;;;;;;;;;;4976353;28;20041;-82
2022/04/17 05:44:04;;;;;;;6.63;2.45;;;;;;;;;;4976458;28;20138;-82
2022/04/17 05:46:48;;;;;;;5.22;2.58;;;;;;;;;;4992329;28;20019;-82
2022/04/17 05:49:13;;;;;;;5.95;2.63;;;;;;;;;;4976443;28;20030;-82
2022/04/17 05:51:41;;;;;;;6.72;2.60;;;;;;;;;;4975936;28;20027;-82
2022/04/17 05:54:07;;;;;;;9.60;3.10;;;;;;;;;;4975455;28;20119;-82
2022/04/17 05:56:44;;;;;;;6.28;2.83;;;;;;;;;;4974779;28;20034;-82
2022/04/17 05:59:12;;;;;;;8.25;2.53;;;;;;;;;;4991938;28;20019;-81
2022/04/17 06:01:37;;;;;;;6.88;3.25;;;;;;;;;;4975023;28;20033;-81
2022/04/17 06:04:03;;;;;;;6.13;2.80;;;;;;;;;;4975652;28;20082;-81
2022/04/17 06:06:29;;;;;;;6.32;2.75;;;;;;;;;;4993191;28;20015;-82
2022/04/17 06:08:56;;;;;;;5.53;2.58;;;;;;;;;;4973834;28;20042;-83
2022/04/17 06:11:24;;;;;;;6.30;2.67;;;;;;;;;;4971252;28;20027;-82
2022/04/17 06:13:49;;;;;;;5.88;3.10;;;;;;;;;;4991201;28;20030;-82
2022/04/17 06:16:15;;;;;;;7.88;2.80;;;;;;;;;;4976333;28;20035;-82
2022/04/17 06:18:41;;;;;;;5.93;3.17;;;;;;;;;;4975932;28;20050;-81
2022/04/17 06:21:11;;;;;;;6.35;3.05;;;;;;;;;;4975237;28;20019;-81
2022/04/17 06:23:37;;;;;;;7.55;3.35;;;;;;;;;;4991870;28;20506;-82
2022/04/17 06:26:10;;;;;;;7.32;3.05;;;;;;;;;;4991746;28;20015;-82
2022/04/17 06:28:46;;;;;;;7.55;3.03;;;;;;;;;;4975408;28;20030;-81
2022/04/17 06:31:18;;;;;;;5.68;2.80;;;;;;;;;;4973357;28;20058;-81
2022/04/17 06:33:44;;;;;;;7.07;3.35;;;;;;;;;;4973143;28;20030;-81
2022/04/17 06:36:10;;;;;;;5.57;2.85;;;;;;;;;;4973237;28;20027;-82
2022/04/17 06:38:35;;;;;;;5.55;2.75;;;;;;;;;;4990607;28;20014;-82
2022/04/17 06:41:08;;;;;;;5.68;2.50;;;;;;;;;;4973279;28;20470;-81
2022/04/17 06:43:33;;;;;;;6.00;3.25;;;;;;;;;;4972554;28;20019;-82
2022/04/17 06:45:59;;;;;;;5.57;2.65;;;;;;;;;;4975092;28;20054;-81
2022/04/17 06:48:25;;;;;;;7.63;3.60;;;;;;;;;;4975890;28;20022;-82
2022/04/17 06:50:56;;;;;;;4.10;2.58;;;;;;;;;;4992546;28;20023;-81
2022/04/17 06:53:24;;;;;;;5.85;2.75;;;;;;;;;;4991056;28;20022;-81
2022/04/17 06:55:55;;;;;;;6.10;2.63;;;;;;;;;;4976284;28;20049;-82
2022/04/17 06:58:20;;;;;;;4.90;2.70;;;;;;;;;;4974828;28;20023;-81
2022/04/17 07:00:50;;;;;;;7.00;2.83;;;;;;;;;;4991509;28;20054;-82
2022/04/17 07:03:27;;;;;;;5.60;2.90;;;;;;;;;;4972275;28;20083;-81
2022/04/17 07:05:53;;;;;;;6.57;3.35;;;;;;;;;;4975413;28;20034;-82
2022/04/17 07:08:18;;;;;;;10.13;2.72;;;;;;;;;;4974555;28;20026;-81
2022/04/17 07:10:48;;;;;;;7.47;2.50;;;;;;;;;;4991338;28;20022;-81
2022/04/17 07:13:18;;;;;;;4.68;2.42;;;;;;;;;;4990884;28;20029;-81
2022/04/17 07:15:44;;;;;;;5.47;2.63;;;;;;;;;;4991420;28;20018;-82
2022/04/17 07:18:10;;;;;;;6.45;2.83;;;;;;;;;;4974445;28;20097;-82
2022/04/17 07:20:41;;;;;;;8.15;3.08;;;;;;;;;;4975671;28;20029;-82
2022/04/17 07:23:06;;;;;;;6.07;2.70;;;;;;;;;;4991375;28;20029;-82
2022/04/17 07:25:32;;;;;;;4.95;2.58;;;;;;;;;;4973074;28;20023;-82
2022/04/17 07:28:04;;;;;;;4.45;2.38;;;;;;;;;;4972887;28;20038;-82
2022/04/17 07:30:30;;;;;;;6.43;3.15;;;;;;;;;;4972110;28;20031;-82
2022/04/17 07:32:59;;;;;;;10.20;3.35;;;;;;;;;;4989391;28;20027;-82
2022/04/17 07:35:35;;;;;;;6.65;2.75;;;;;;;;;;4973082;28;20073;-83
2022/04/17 07:38:01;;;;;;;5.10;2.67;;;;;;;;;;4972362;28;20029;-81
2022/04/17 07:40:28;;;;;;;10.90;2.65;;;;;;;;;;4970467;28;20034;-82
2022/04/17 07:42:55;;;;;;;7.33;2.97;;;;;;;;;;4971524;28;20058;-82
2022/04/17 07:45:24;;;;;;;8.60;3.95;;;;;;;;;;4988607;28;20026;-82
2022/04/17 07:47:50;;;;;;;5.15;2.50;;;;;;;;;;4972155;28;20041;-82
2022/04/17 07:50:23;;;;;;;8.18;2.63;;;;;;;;;;4972544;28;20043;-81
2022/04/17 07:52:49;;;;;;;7.75;2.97;;;;;;;;;;4972956;28;20042;-81
2022/04/17 07:55:18;;;;;;;4.15;2.35;;;;;;;;;;4971579;28;20033;-81
2022/04/17 07:58:04;;;;;;;5.82;2.50;;;;;;;;;;4970732;28;20094;-83
2022/04/17 08:00:45;;;;;;;4.97;2.47;;;;;;;;;;4970878;28;20261;-83
2022/04/17 08:03:21;;;;;;;6.35;2.70;;;;;;;;;;4971305;28;20050;-82
2022/04/17 08:05:51;;;;;;;5.63;2.55;;;;;;;;;;4988535;28;20019;-81
2022/04/17 08:08:17;;;;;;;5.70;2.55;;;;;;;;;;4971605;28;20019;-82
2022/04/17 08:10:42;;;;;;;6.03;2.35;;;;;;;;;;4971777;28;20042;-81
2022/04/17 08:13:11;;;;;;;5.65;2.40;;;;;;;;;;4970996;28;20053;-82
2022/04/17 08:15:37;;;;;;;6.53;2.22;;;;;;;;;;4971415;28;20042;-82
2022/04/17 08:18:02;;;;;;;8.13;2.58;;;;;;;;;;4970546;28;20038;-82
2022/04/17 08:20:28;;;;;;;3.88;2.03;;;;;;;;;;4969872;28;20023;-82
2022/04/17 08:22:56;;;;;;;4.80;2.35;;;;;;;;;;4969714;28;20026;-82
2022/04/17 08:25:25;;;;;;;5.25;2.72;;;;;;;;;;4968733;28;20038;-82
2022/04/17 08:27:51;;;;;;;7.95;2.67;;;;;;;;;;4985474;28;20031;-82
2022/04/17 09:42:38;;;;;;;3.92;1.80;;;;;;;;;;5302473;23;20127;-90
2022/04/17 09:45:06;;;;;;;6.45;2.47;;;;;;;;;;4974417;29;20024;-91
2022/04/17 09:47:32;;;;;;;5.82;2.17;;;;;;;;;;4977679;23;20020;-91
2022/04/17 09:49:59;;;;;;;4.32;1.70;;;;;;;;;;4960548;28;20039;-90
2022/04/17 09:52:44;;;;;;;4.32;1.90;;;;;;;;;;4940172;29;20107;-92
2022/04/17 09:55:10;;;;;;;7.90;2.70;;;;;;;;;;4934160;29;20020;-91
2022/04/17 09:57:37;;;;;;;5.90;2.40;;;;;;;;;;4927133;29;20027;-92
2022/04/17 10:00:18;;;;;;;5.57;2.17;;;;;;;;;;4927363;29;20055;-92
2022/04/17 10:02:44;;;;;;;6.63;2.45;;;;;;;;;;4927413;29;20051;-92
2022/04/17 10:05:14;;;;;;;6.20;2.63;;;;;;;;;;4928990;29;20023;-93
2022/04/17 10:07:43;;;;;;;4.78;1.92;;;;;;;;;;4925909;29;20024;-92
2022/04/17 10:10:10;;;;;;;5.03;2.08;;;;;;;;;;4925375;29;20020;-93
2022/04/17 10:12:36;;;;;;;5.85;2.05;;;;;;;;;;4926272;29;20510;-94
2022/04/17 10:15:04;;;;;;;3.83;1.75;;;;;;;;;;4925300;29;20031;-93
2022/04/17 10:17:30;;;;;;;4.95;2.20;;;;;;;;;;4924299;29;20026;-91
2022/04/17 10:19:58;;;;;;;5.20;2.10;;;;;;;;;;4925029;29;20027;-92
2022/04/17 10:22:26;;;;;;;3.70;1.70;;;;;;;;;;4924560;29;20022;-93
2022/04/17 10:24:54;;;;;;;7.23;2.30;;;;;;;;;;4924123;29;20091;-91
2022/04/17 10:27:28;;;;;;;4.90;2.15;;;;;;;;;;4926126;29;20026;-93
2022/04/17 10:29:56;;;;;;;7.07;2.35;;;;;;;;;;4924224;29;20502;-92
2022/04/17 10:32:21;;;;;;;5.93;2.60;;;;;;;;;;4925287;29;20026;-92
2022/04/17 10:35:05;;;;;;;8.95;2.53;;;;;;;;;;4939025;29;20258;-91
2022/04/17 10:37:31;;;;;;;5.70;2.30;;;;;;;;;;4939034;29;20387;-92
2022/04/17 10:39:57;;;;;;;9.90;3.30;;;;;;;;;;4938620;29;20024;-92
2022/04/17 10:42:32;;;;;;;7.63;3.03;;;;;;;;;;4923190;29;20471;-91
2022/04/17 10:45:05;;;;;;;6.10;1.83;;;;;;;;;;4924472;29;20031;-91
2022/04/17 10:47:31;;;;;;;7.82;2.58;;;;;;;;;;4925550;29;20278;-91
2022/04/17 10:49:56;;;;;;;4.95;1.85;;;;;;;;;;4939846;29;20400;-92
2022/04/17 10:52:29;;;;;;;4.93;1.80;;;;;;;;;;4938676;29;20020;-92
2022/04/17 10:54:55;;;;;;;3.40;1.63;;;;;;;;;;4921435;29;20020;-91
2022/04/17 10:57:24;;;;;;;4.88;1.88;;;;;;;;;;4922569;29;20020;-88
2022/04/17 10:59:49;;;;;;;4.18;1.88;;;;;;;;;;4938976;29;20081;-89
2022/04/17 11:02:18;;;;;;;5.63;2.20;;;;;;;;;;4923508;29;20016;-89
2022/04/17 11:04:44;;;;;;;;;;;;;;;;;;4939973;29;20024;-89
2022/04/17 11:07:10;;;;;;;4.32;2.00;;;;;;;;;;4938889;29;19994;-89
2022/04/17 11:09:39;;;;;;;6.22;1.98;;;;;;;;;;4938338;29;20026;-89
2022/04/17 11:12:20;;;;;;;5.88;2.88;;;;;;;;;;4920794;29;20023;-87
2022/04/17 11:14:55;;;;;;;4.05;1.85;;;;;;;;;;4920467;29;20024;-88
2022/04/17 11:17:23;;;;;;;5.47;2.25;;;;;;;;;;4920636;29;20027;-88
2022/04/17 11:19:51;;;;;;;5.03;2.10;;;;;;;;;;4920500;29;20024;-87
2022/04/17 11:22:17;;;;;;;6.13;2.30;;;;;;;;;;4938218;29;20484;-87
2022/04/17 11:24:54;;;;;;;6.68;2.33;;;;;;;;;;4920801;29;20250;-87
2022/04/17 11:27:32;;;;;;;4.90;2.25;;;;;;;;;;4936621;29;20027;-87
2022/04/17 11:29:57;;;;;;;7.18;2.15;;;;;;;;;;4936162;29;20074;-87
2022/04/17 11:32:23;;;;;;;5.60;2.47;;;;;;;;;;4919756;29;20020;-88
2022/04/17 11:34:52;;;;;;;4.55;2.38;;;;;;;;;;4934752;29;20024;-88
2022/04/17 11:37:25;;;;;;;3.70;1.75;;;;;;;;;;4935802;29;20472;-87
2022/04/17 11:39:51;;;;;;;5.47;1.90;;;;;;;;;;4935641;29;20459;-87
2022/04/17 11:42:17;;;;;;;4.93;2.80;;;;;;;;;;4919066;29;20103;-87
2022/04/17 11:44:42;;;;;;;5.63;2.50;;;;;;;;;;4936291;29;20011;-87
2022/04/17 11:47:10;;;;;;;5.45;1.95;;;;;;;;;;4934461;29;20026;-87
2022/04/17 11:49:39;;;;;;;4.50;1.83;;;;;;;;;;4934422;29;20067;-86
2022/04/17 11:52:10;;;;;;;4.50;1.90;;;;;;;;;;4935851;29;20028;-86
2022/04/17 11:54:35;;;;;;;4.43;1.48;;;;;;;;;;4934688;29;20027;-87
2022/04/17 11:57:01;;;;;;;5.32;2.40;;;;;;;;;;4934692;29;20547;-89
2022/04/17 11:59:26;;;;;;;7.10;2.78;;;;;;;;;;4919250;29;20496;-89
2022/04/17 12:02:07;;;;;;;5.10;2.10;;;;;;;;;;4936041;29;20151;-90
2022/04/17 12:04:33;;;;;;;3.65;1.70;;;;;;;;;;4933692;29;20501;-88
2022/04/17 12:06:58;;;;;;;3.80;1.90;;;;;;;;;;4918327;29;20028;-87
2022/04/17 12:09:23;;;;;;;4.03;2.00;;;;;;;;;;4934078;29;20551;-88
2022/04/17 12:11:50;;;;;;;4.85;2.15;;;;;;;;;;4918316;29;20086;-88
2022/04/17 12:14:28;;;;;;;2.90;1.52;;;;;;;;;;4918669;29;20075;-87
2022/04/17 12:16:54;;;;;;;5.00;2.10;;;;;;;;;;4918802;29;20023;-86
2022/04/17 12:19:19;;;;;;;6.60;2.20;;;;;;;;;;4918049;29;20039;-86
2022/04/17 12:21:44;;;;;;;3.80;2.00;;;;;;;;;;4935224;29;20042;-87
2022/04/17 12:24:10;;;;;;;5.43;2.63;;;;;;;;;;4917833;29;20022;-86
2022/04/17 12:26:35;;;;;;;4.25;1.85;;;;;;;;;;4918608;29;20502;-87
2022/04/17 12:29:01;;;;;;;6.25;2.03;;;;;;;;;;4917819;29;20110;-86
2022/04/17 12:31:26;;;;;;;3.33;1.60;;;;;;;;;;4918401;29;20031;-86
2022/04/17 12:34:04;;;;;;;3.67;1.60;;;;;;;;;;4918686;29;20023;-87
2022/04/17 12:36:29;;;;;;;6.72;1.67;;;;;;;;;;4918207;29;20035;-87
2022/04/17 12:38:58;;;;;;;3.88;1.60;;;;;;;;;;4918124;29;20057;-86
2022/04/17 12:41:28;;;;;;;7.65;1.70;;;;;;;;;;4918232;29;20020;-86
2022/04/17 12:43:53;;;;;;;4.30;1.80;;;;;;;;;;4918543;29;20027;-86
2022/04/17 12:46:23;;;;;;;9.48;1.70;;;;;;;;;;4918645;29;20020;-86
2022/04/17 12:48:59;;;;;;;4.25;1.65;;;;;;;;;;4935207;29;20036;-87
2022/04/17 12:51:25;;;;;;;2.88;1.58;;;;;;;;;;4921097;29;20034;-86
2022/04/17 12:53:50;;;;;;;5.80;1.70;;;;;;;;;;4939835;29;20015;-87
2022/04/17 12:56:17;;;;;;;4.45;1.42;;;;;;;;;;4922834;29;20062;-89
2022/04/17 12:58:54;;;;;;;4.22;1.63;;;;;;;;;;4939717;29;20030;-87
2022/04/17 13:01:23;;;;;;;3.75;1.52;;;;;;;;;;4939990;29;20022;-86
2022/04/17 13:03:49;;;;;;;3.80;1.20;;;;;;;;;;4938949;29;20099;-87
2022/04/17 13:06:21;;;;;;;4.55;1.77;;;;;;;;;;4938869;29;20050;-86
2022/04/17 13:09:21;;;;;;;3.75;1.63;;;;;;;;;;4921884;29;20036;-87
2022/04/17 13:11:51;;;;;;;4.10;1.65;;;;;;;;;;4917091;29;20096;-85
2022/04/17 13:14:16;;;;;;;3.45;1.60;;;;;;;;;;4938935;29;20126;-86
2022/04/17 13:16:50;;;;;;;5.15;2.05;;;;;;;;;;4922108;29;20059;-86
2022/04/17 13:19:15;;;;;;;4.82;1.92;;;;;;;;;;4921688;29;20028;-88
2022/04/17 13:21:41;;;;;;;5.38;2.30;;;;;;;;;;4922048;29;20019;-87
2022/04/17 13:24:10;;;;;;;3.35;1.73;;;;;;;;;;4938968;29;20023;-86
2022/04/17 13:26:36;;;;;;;3.35;1.50;;;;;;;;;;4924267;29;20475;-87
2022/04/17 13:29:10;;;;;;;4.07;1.98;;;;;;;;;;4923419;29;20032;-86
2022/04/17 13:31:36;;;;;;;3.97;1.83;;;;;;;;;;4924801;29;20024;-86
2022/04/17 13:34:02;;;;;;;2.83;1.20;;;;;;;;;;4940267;29;20031;-87
2022/04/17 13:36:28;;;;;;;4.43;1.70;;;;;;;;;;4940527;29;20074;-87
2022/04/17 13:38:53;;;;;;;4.97;2.42;;;;;;;;;;4939363;29;20106;-87
2022/04/17 13:41:18;;;;;;;6.32;2.38;;;;;;;;;;4923604;29;20027;-86
2022/04/17 13:43:50;;;;;;;7.93;2.13;;;;;;;;;;4922577;29;20016;-88
2022/04/17 13:46:15;;;;;;;3.08;1.60;;;;;;;;;;4940860;29;20020;-87
2022/04/17 13:48:44;;;;;;;6.85;1.90;;;;;;;;;;4922182;29;20103;-87
2022/04/17 13:51:10;;;;;;;5.95;1.73;;;;;;;;;;4937547;29;20491;-87
2022/04/17 13:53:35;;;;;;;3.55;1.30;;;;;;;;;;4937899;29;20027;-86
2022/04/17 13:56:01;;;;;;;2.47;1.40;;;;;;;;;;4938996;29;20107;-85
2022/04/17 13:58:29;;;;;;;3.10;1.17;;;;;;;;;;4937877;29;20023;-87
2022/04/17 14:00:57;;;;;;;6.00;1.30;;;;;;;;;;4938972;29;20027;-87
2022/04/17 14:03:30;;;;;;;6.00;1.52;;;;;;;;;;4938437;29;20047;-86
2022/04/17 14:05:58;;;;;;;4.50;1.30;;;;;;;;;;4937771;29;20038;-85
2022/04/17 14:08:24;;;;;;;3.17;1.35;;;;;;;;;;4920995;29;20160;-86
2022/04/17 14:10:49;;;;;;;3.05;1.35;;;;;;;;;;4937801;29;20065;-85
2022/04/17 14:13:14;;;;;;;4.95;2.33;;;;;;;;;;4937073;29;20019;-85
2022/04/17 14:15:40;;;;;;;3.20;1.50;;;;;;;;;;4921841;29;20113;-87
2022/04/17 14:18:05;;;;;;;2.92;1.30;;;;;;;;;;4920267;29;20028;-85
2022/04/17 14:20:38;;;;;;;3.38;1.65;;;;;;;;;;4921004;29;20046;-86
2022/04/17 14:23:10;;;;;;;3.03;1.48;;;;;;;;;;4921721;29;20020;-88
2022/04/17 14:25:35;;;;;;;3.25;1.40;;;;;;;;;;4939950;29;20095;-87
2022/04/17 14:28:03;;;;;;;3.50;1.77;;;;;;;;;;4938377;29;20403;-85
2022/04/17 14:30:29;;;;;;;3.25;1.63;;;;;;;;;;4957120;23;20042;-86
2022/04/17 14:32:54;;;;;;;2.88;1.20;;;;;;;;;;4943498;29;20031;-86
2022/04/17 14:35:19;;;;;;;3.73;1.17;;;;;;;;;;4946180;29;20020;-87
2022/04/17 14:37:45;;;;;;;2.40;1.23;;;;;;;;;;4942042;29;20391;-84
2022/04/17 14:40:11;;;;;;;2.72;1.08;;;;;;;;;;4941045;28;20019;-84
2022/04/17 14:42:36;;;;;;;3.33;1.77;;;;;;;;;;4965108;29;20116;-84
2022/04/17 14:45:01;;;;;;;3.07;1.40;;;;;;;;;;4952787;29;20034;-84
2022/04/17 14:47:33;;;;;;;3.20;1.30;;;;;;;;;;4973878;28;20058;-84
2022/04/17 14:49:59;;;;;;;2.78;1.50;;;;;;;;;;4973370;28;20022;-83
2022/04/17 14:52:24;;;;;;;3.57;1.63;;;;;;;;;;4957412;29;20394;-84
2022/04/17 14:54:49;;;;;;;3.53;1.30;;;;;;;;;;4958483;28;20019;-84
2022/04/17 14:57:14;;;;;;;2.63;1.55;;;;;;;;;;4951568;29;20023;-83
2022/04/17 14:59:42;;;;;;;4.00;2.07;;;;;;;;;;4964597;28;20027;-86
2022/04/17 15:02:08;;;;;;;;;;;;;;;;;;4951023;29;20262;-84
2022/04/17 15:04:33;;;;;;;5.30;1.67;;;;;;;;;;4971204;29;19910;-83
2022/04/17 15:06:58;;;;;;;2.67;1.33;;;;;;;;;;4974091;28;20019;-86
2022/04/17 15:09:23;;;;;;;6.82;1.92;;;;;;;;;;4957911;28;20380;-84
2022/04/17 15:11:49;;;;;;;4.38;1.73;;;;;;;;;;4975423;28;20011;-84
2022/04/17 15:14:14;;;;;;;3.37;1.40;;;;;;;;;;4974578;28;20082;-84
2022/04/17 15:16:39;;;;;;;4.72;1.88;;;;;;;;;;4960062;29;20265;-85
2022/04/17 15:19:04;;;;;;;5.60;1.40;;;;;;;;;;4954378;29;20494;-85
2022/04/17 15:21:30;;;;;;;3.08;1.50;;;;;;;;;;4945831;29;20264;-85
2022/04/17 15:23:55;;;;;;;3.92;1.95;;;;;;;;;;4938313;29;20073;-87
2022/04/17 15:26:20;;;;;;;3.85;1.30;;;;;;;;;;4955813;29;20344;-86
2022/04/17 15:28:46;;;;;;;3.38;1.48;;;;;;;;;;4955992;28;20046;-86
2022/04/17 15:31:13;;;;;;;3.35;1.50;;;;;;;;;;4955309;28;20030;-85
2022/04/17 15:33:40;;;;;;;2.50;1.27;;;;;;;;;;4940775;29;20509;-86
2022/04/17 15:36:05;;;;;;;3.80;1.45;;;;;;;;;;4939713;29;20027;-84
2022/04/17 15:38:30;;;;;;;2.40;1.10;;;;;;;;;;4948023;29;20050;-84
2022/04/17 15:40:56;;;;;;;3.87;1.43;;;;;;;;;;4947602;29;20313;-86
2022/04/17 15:48:49;;;;;;;3.28;1.27;;;;;;;;;;4969847;28;20034;-85
2022/04/17 15:51:16;;;;;;;1.70;0.95;;;;;;;;;;4951950;29;20023;-86
2022/04/17 15:53:41;;;;;;;2.92;1.20;;;;;;;;;;4951122;29;20020;-86
2022/04/17 15:56:06;;;;;;;3.13;1.60;;;;;;;;;;4972168;29;20058;-85
2022/04/17 15:58:31;;;;;;;3.28;1.67;;;;;;;;;;4950320;29;20313;-86
2022/04/17 16:00:57;;;;;;;5.78;2.22;;;;;;;;;;4959673;28;20054;-87
2022/04/17 16:03:22;;;;;;;2.92;1.40;;;;;;;;;;4955103;28;20027;-87
2022/04/17 16:05:49;;;;;;;2.90;1.13;;;;;;;;;;4937909;28;20015;-89
2022/04/17 16:08:14;;;;;;;3.10;1.15;;;;;;;;;;4938438;29;20264;-88
2022/04/17 16:10:40;;;;;;;2.53;1.23;;;;;;;;;;4954819;28;20019;-87
2022/04/17 16:13:05;;;;;;;2.03;1.02;;;;;;;;;;4937600;29;20070;-89
2022/04/17 16:15:30;;;;;;;4.20;1.20;;;;;;;;;;4938668;29;20380;-89